Time;durP1;ratioP1;P1;durP2;ratioP2;P2;SDS_P1;SDS_P2;PMS_P1;PMS_P2;Temp;Humidity;BMP_temperature;BMP_pressure;BME280_temperature;BME280_humidity;BME280_pressure;Samples;Min_cycle;Max_cycle;Signal;HPM_P1;HPM_P2
2023/08/10 00:01:48;;;;;;;;;;;14.50;99.90;;;;;;12448623;28;20031;-88
2023/08/10 00:07:50;;;;;;;;;;;14.40;99.90;;;;;;12473633;28;19929;-88
2023/08/10 00:13:52;;;;;;;;;;;14.30;99.90;;;;;;12444950;28;19933;-88
2023/08/10 00:19:54;;;;;;;;;;;14.50;99.90;;;;;;12461830;28;19935;-88
2023/08/10 00:25:56;;;;;;;;;;;14.50;99.90;;;;;;12453061;28;19977;-88
2023/08/10 00:31:58;;;;;;;;;;;14.40;99.90;;;;;;12460390;28;19932;-88
2023/08/10 00:37:59;;;;;;;;;;;14.10;99.90;;;;;;12463926;28;20160;-88
2023/08/10 00:44:01;;;;;;;;;;;14.10;99.90;;;;;;12446644;28;20396;-88
2023/08/10 00:50:03;;;;;;;;;;;14.10;99.90;;;;;;12462569;28;19929;-88
2023/08/10 00:56:06;;;;;;;;;;;14.20;99.90;;;;;;12445607;28;19925;-88
2023/08/10 01:02:09;;;;;;;;;;;14.10;99.90;;;;;;12470116;23;19929;-35
2023/08/10 01:08:12;;;;;;;;;;;14.20;99.90;;;;;;12459188;28;20314;-36
2023/08/10 01:14:28;;;;;;;;;;;14.20;99.90;;;;;;12459202;28;20392;-37
2023/08/10 01:20:32;;;;;;;;;;;14.20;99.90;;;;;;12458975;28;19932;-36
2023/08/10 01:26:35;;;;;;;;;;;14.10;99.90;;;;;;12467047;28;20395;-35
2023/08/10 01:32:37;;;;;;;;;;;13.90;99.90;;;;;;12465334;28;20360;-35
2023/08/10 01:38:39;;;;;;;;;;;13.80;99.90;;;;;;12459131;28;19980;-36
2023/08/10 01:44:40;;;;;;;;;;;13.80;99.90;;;;;;12474907;28;20040;-35
2023/08/10 01:50:44;;;;;;;;;;;13.90;99.90;;;;;;12435879;28;19937;-36
2023/08/10 01:56:46;;;;;;;;;;;14.00;99.90;;;;;;12422363;28;20029;-36
2023/08/10 02:02:48;;;;;;;;;;;14.00;99.90;;;;;;12421441;28;19996;-36
2023/08/10 02:08:52;;;;;;;;;;;13.90;99.90;;;;;;12418184;28;20477;-35
2023/08/10 02:14:58;;;;;;;;;;;13.90;99.90;;;;;;12421313;28;20028;-36
2023/08/10 02:21:00;;;;;;;;;;;13.80;99.90;;;;;;12411250;28;20001;-35
2023/08/10 02:27:02;;;;;;;;;;;13.90;99.90;;;;;;12418217;28;19940;-36
2023/08/10 02:33:05;;;;;;;;;;;13.80;99.90;;;;;;12417833;28;19929;-35
2023/08/10 02:39:06;;;;;;;;;;;13.70;99.90;;;;;;12429306;28;20405;-35
2023/08/10 02:45:09;;;;;;;;;;;13.80;99.90;;;;;;12429137;28;19926;-36
2023/08/10 02:51:11;;;;;;;;;;;13.90;99.90;;;;;;12423326;28;19936;-36
2023/08/10 02:57:12;;;;;;;;;;;13.90;99.90;;;;;;12427965;28;19933;-35
2023/08/10 03:03:14;;;;;;;;;;;13.70;99.90;;;;;;12461642;28;19936;-35
2023/08/10 03:09:16;;;;;;;;;;;13.70;99.90;;;;;;12470586;28;20413;-36
2023/08/10 03:15:18;;;;;;;;;;;13.60;99.90;;;;;;12495847;28;20015;-35
2023/08/10 03:21:19;;;;;;;;;;;13.60;99.90;;;;;;12478359;28;19970;-36
2023/08/10 03:27:22;;;;;;;;;;;13.50;99.90;;;;;;12488807;28;20552;-36
2023/08/10 03:33:24;;;;;;;;;;;13.60;99.90;;;;;;12470702;28;19957;-36
2023/08/10 03:39:25;;;;;;;;;;;13.60;99.90;;;;;;12474641;28;19975;-35
2023/08/10 03:45:27;;;;;;;;;;;13.60;99.90;;;;;;12483089;28;20397;-36
2023/08/10 03:51:29;;;;;;;;;;;13.60;99.90;;;;;;12467977;28;20402;-36
2023/08/10 03:57:32;;;;;;;;;;;13.70;99.90;;;;;;12487742;28;20512;-36
2023/08/10 04:03:34;;;;;;;;;;;13.60;99.90;;;;;;12472224;28;19932;-35
2023/08/10 04:09:36;;;;;;;;;;;13.50;99.90;;;;;;12486346;28;20380;-35
2023/08/10 04:15:38;;;;;;;;;;;13.40;99.90;;;;;;12464598;28;19978;-37
2023/08/10 04:21:40;;;;;;;;;;;13.40;99.90;;;;;;12492661;28;20419;-35
2023/08/10 04:27:41;;;;;;;;;;;13.20;99.90;;;;;;12467643;28;20300;-35
2023/08/10 04:33:43;;;;;;;;;;;13.20;99.90;;;;;;12491886;28;20455;-36
2023/08/10 04:39:45;;;;;;;;;;;13.20;99.90;;;;;;12480799;28;20400;-35
2023/08/10 04:45:47;;;;;;;;;;;13.20;99.90;;;;;;12479741;28;19959;-36
2023/08/10 04:51:49;;;;;;;;;;;13.30;99.90;;;;;;12479788;28;20439;-36
2023/08/10 04:57:52;;;;;;;;;;;13.40;99.90;;;;;;12468264;28;19925;-35
2023/08/10 05:03:54;;;;;;;;;;;13.30;99.90;;;;;;12456007;28;20091;-36
2023/08/10 05:09:56;;;;;;;;;;;13.60;99.90;;;;;;12456991;28;20510;-35
2023/08/10 05:15:57;;;;;;;;;;;14.10;99.90;;;;;;12456052;28;19933;-35
2023/08/10 05:21:59;;;;;;;;;;;14.30;99.90;;;;;;12472999;28;20374;-35
2023/08/10 05:28:01;;;;;;;;;;;14.30;99.90;;;;;;12442368;28;20029;-35
2023/08/10 05:34:03;;;;;;;;;;;14.10;99.90;;;;;;12462196;28;20419;-36
2023/08/10 05:40:09;;;;;;;;;;;14.20;99.90;;;;;;12467109;28;19930;-35
2023/08/10 05:46:11;;;;;;;;;;;14.00;99.90;;;;;;12461928;28;19972;-37
2023/08/10 05:52:13;;;;;;;;;;;14.20;99.90;;;;;;12455927;28;20377;-35
2023/08/10 05:58:15;;;;;;;;;;;14.30;99.90;;;;;;12459560;28;19929;-35
2023/08/10 06:04:18;;;;;;;;;;;14.40;99.90;;;;;;12466561;28;19932;-35
2023/08/10 06:10:19;;;;;;;;;;;14.30;99.90;;;;;;12461405;28;20412;-36
2023/08/10 06:16:21;;;;;;;;;;;14.40;99.90;;;;;;12459619;28;19932;-36
2023/08/10 06:22:24;;;;;;;;;;;14.30;99.90;;;;;;12454780;28;19925;-36
2023/08/10 06:28:26;;;;;;;;;;;14.10;99.90;;;;;;12469946;28;20008;-36
2023/08/10 06:34:27;;;;;;;;;;;14.40;99.90;;;;;;12477080;28;20066;-35
2023/08/10 06:40:31;;;;;;;;;;;14.40;99.90;;;;;;12466283;28;19976;-35
2023/08/10 06:46:33;;;;;;;;;;;14.60;99.90;;;;;;12464185;28;20380;-36
2023/08/10 06:52:35;;;;;;;;;;;14.70;99.90;;;;;;12462689;28;20020;-36
2023/08/10 06:58:36;;;;;;;;;;;15.20;99.90;;;;;;12469561;28;19962;-36
2023/08/10 07:04:43;;;;;;;;;;;15.30;99.90;;;;;;12467114;28;19929;-36
2023/08/10 07:10:45;;;;;;;;;;;15.40;99.90;;;;;;12472950;28;19929;-36
2023/08/10 07:16:46;;;;;;;;;;;15.40;99.90;;;;;;12464595;28;19971;-36
2023/08/10 07:22:48;;;;;;;;;;;15.50;99.90;;;;;;12466248;28;20968;-37
2023/08/10 07:28:50;;;;;;;;;;;15.60;99.90;;;;;;12465479;28;19974;-36
2023/08/10 07:34:51;;;;;;;;;;;15.60;99.90;;;;;;12467575;28;19987;-36
2023/08/10 07:40:53;;;;;;;;;;;15.80;99.90;;;;;;12470889;28;19929;-36
2023/08/10 07:46:55;;;;;;;;;;;16.10;99.90;;;;;;12466016;28;20039;-36
2023/08/10 07:52:57;;;;;;;;;;;16.30;99.90;;;;;;12471952;28;19925;-36
2023/08/10 07:58:59;;;;;;;;;;;16.10;99.90;;;;;;12456641;28;19929;-36
2023/08/10 08:05:01;;;;;;;;;;;16.40;99.90;;;;;;12470990;28;19929;-36
2023/08/10 08:11:03;;;;;;;;;;;16.50;99.90;;;;;;12471649;28;19959;-36
2023/08/10 08:24:12;;;;;;;;;;;16.40;99.90;;;;;;12496786;23;19986;-82
2023/08/10 08:30:14;;;;;;;;;;;16.70;99.90;;;;;;12458521;28;19995;-81
2023/08/10 08:36:15;;;;;;;;;;;17.10;99.90;;;;;;12457689;28;20051;-82
2023/08/10 08:42:17;;;;;;;;;;;17.10;99.90;;;;;;12451389;28;20518;-81
2023/08/10 08:48:20;;;;;;;;;;;16.90;99.90;;;;;;12468972;28;20484;-81
2023/08/10 08:54:22;;;;;;;;;;;17.00;99.90;;;;;;12405569;28;19960;-81
2023/08/10 09:00:24;;;;;;;;;;;16.50;99.90;;;;;;12428038;28;19940;-81
2023/08/10 09:06:26;;;;;;;;;;;16.90;99.90;;;;;;12441783;28;19937;-81
2023/08/10 09:12:30;;;;;;;;;;;17.50;99.90;;;;;;12425758;28;19968;-84
2023/08/10 09:18:33;;;;;;;;;;;17.70;99.90;;;;;;12440252;28;19954;-83
2023/08/10 09:24:44;;;;;;;;;;;17.50;99.90;;;;;;12484657;28;19926;-84
2023/08/10 09:30:48;;;;;;;;;;;17.90;99.90;;;;;;12434996;28;19929;-81
2023/08/10 09:36:53;;;;;;;;;;;18.30;99.90;;;;;;12400908;28;20390;-81
2023/08/10 09:42:55;;;;;;;;;;;19.00;99.90;;;;;;12430502;28;19971;-82
2023/08/10 09:48:59;;;;;;;;;;;19.50;99.90;;;;;;12394496;28;19936;-82
2023/08/10 09:55:02;;;;;;;;;;;18.70;99.90;;;;;;12422836;28;19930;-82
2023/08/10 10:01:04;;;;;;;;;;;19.30;99.90;;;;;;12403944;28;19991;-82
2023/08/10 10:07:06;;;;;;;;;;;19.90;99.90;;;;;;12421313;28;19929;-82
2023/08/10 10:13:11;;;;;;;;;;;19.80;99.90;;;;;;12419249;28;20399;-82
2023/08/10 10:19:15;;;;;;;;;;;19.70;99.90;;;;;;12432979;28;19932;-84
2023/08/10 10:25:19;;;;;;;;;;;19.10;99.90;;;;;;12432648;28;19937;-81
2023/08/10 10:31:21;;;;;;;;;;;18.70;99.90;;;;;;12434692;28;20228;-82
2023/08/10 10:37:30;;;;;;;;;;;18.80;99.90;;;;;;12432310;28;19925;-81
2023/08/10 10:43:32;;;;;;;;;;;19.30;99.90;;;;;;12428232;28;20379;-82
2023/08/10 10:49:34;;;;;;;;;;;19.80;99.90;;;;;;12410625;28;19972;-80
2023/08/10 10:55:43;;;;;;;;;;;20.30;99.90;;;;;;12434257;28;20028;-82
2023/08/10 11:01:46;;;;;;;;;;;20.80;99.90;;;;;;12445522;22;19925;-35
2023/08/10 11:07:49;;;;;;;;;;;21.10;99.90;;;;;;12531566;28;19935;-35
2023/08/10 11:13:52;;;;;;;;;;;20.70;99.90;;;;;;12522712;28;19968;-36
2023/08/10 11:19:54;;;;;;;;;;;20.00;99.90;;;;;;12520159;28;19936;-35
2023/08/10 11:25:57;;;;;;;;;;;20.00;99.90;;;;;;12537065;28;19947;-35
2023/08/10 11:31:59;;;;;;;;;;;20.30;99.90;;;;;;12546192;28;19936;-35
2023/08/10 11:38:05;;;;;;;;;;;20.30;99.90;;;;;;12542146;28;19931;-35
2023/08/10 11:44:06;;;;;;;;;;;20.10;99.90;;;;;;12508832;28;20012;-35
2023/08/10 11:50:12;;;;;;;;;;;20.00;99.90;;;;;;12514369;28;20368;-35
2023/08/10 11:56:14;;;;;;;;;;;19.90;99.90;;;;;;12540043;28;19975;-35
2023/08/10 12:02:17;;;;;;;;;;;20.70;99.90;;;;;;12528963;28;20020;-35
2023/08/10 12:08:26;;;;;;;;;;;20.60;99.90;;;;;;12507767;28;20031;-35
2023/08/10 12:14:28;;;;;;;;;;;20.80;99.90;;;;;;12506047;28;19925;-36
2023/08/10 12:20:30;;;;;;;;;;;20.90;99.90;;;;;;12500575;28;19940;-37
2023/08/10 12:26:32;;;;;;;;;;;20.80;99.90;;;;;;12503095;28;19942;-35
2023/08/10 12:32:33;;;;;;;;;;;21.00;99.90;;;;;;12509445;28;20430;-35
2023/08/10 12:38:35;;;;;;;;;;;21.00;99.90;;;;;;12497446;28;19929;-35
2023/08/10 12:44:37;;;;;;;;;;;21.30;99.90;;;;;;12499432;28;20369;-37
2023/08/10 12:50:39;;;;;;;;;;;21.50;99.90;;;;;;12505385;28;19928;-35
2023/08/10 12:56:40;;;;;;;;;;;21.60;99.90;;;;;;12509583;28;19998;-36
2023/08/10 13:02:43;;;;;;;;;;;22.00;99.90;;;;;;12494081;28;20020;-35
2023/08/10 13:08:46;;;;;;;;;;;21.80;99.90;;;;;;12493889;28;19928;-35
2023/08/10 13:14:48;;;;;;;;;;;21.60;99.90;;;;;;12507060;28;19925;-35
2023/08/10 13:20:49;;;;;;;;;;;21.70;99.90;;;;;;12501880;28;19978;-35
2023/08/10 13:26:51;;;;;;;;;;;21.80;99.90;;;;;;12507514;28;20312;-35
2023/08/10 13:32:53;;;;;;;;;;;21.60;99.90;;;;;;12498265;28;19963;-36
2023/08/10 13:38:55;;;;;;;;;;;21.60;99.90;;;;;;12513564;28;19959;-35
2023/08/10 13:44:57;;;;;;;;;;;21.10;99.90;;;;;;12494461;28;19991;-35
2023/08/10 13:50:59;;;;;;;;;;;21.00;99.90;;;;;;12496186;28;19979;-35
2023/08/10 13:57:03;;;;;;;;;;;20.80;99.90;;;;;;12495480;28;20598;-35
2023/08/10 14:03:05;;;;;;;;;;;20.50;99.90;;;;;;12485100;28;19956;-35
2023/08/10 14:09:08;;;;;;;;;;;20.60;99.90;;;;;;12503411;28;20394;-35
2023/08/10 14:15:11;;;;;;;;;;;20.30;99.90;;;;;;12506063;28;20025;-35
2023/08/10 14:21:13;;;;;;;;;;;20.30;99.90;;;;;;12513258;28;19933;-36
2023/08/10 14:27:15;;;;;;;;;;;20.40;99.90;;;;;;12501504;28;19925;-35
2023/08/10 14:33:17;;;;;;;;;;;20.20;99.90;;;;;;12505043;28;19932;-36
2023/08/10 14:39:19;;;;;;;;;;;20.10;99.90;;;;;;12513936;28;19933;-35
2023/08/10 14:45:20;;;;;;;;;;;20.10;99.90;;;;;;12501928;28;20613;-35
2023/08/10 14:51:22;;;;;;;;;;;20.10;99.90;;;;;;12500871;28;19932;-35
2023/08/10 14:57:24;;;;;;;;;;;20.10;99.90;;;;;;12503171;28;19929;-35
2023/08/10 15:03:26;;;;;;;;;;;20.00;99.90;;;;;;12495101;28;19930;-35
2023/08/10 15:09:27;;;;;;;;;;;20.00;99.90;;;;;;12503901;28;19924;-36
2023/08/10 15:15:29;;;;;;;;;;;19.90;99.90;;;;;;12506668;28;20487;-35
2023/08/10 15:21:31;;;;;;;;;;;19.80;99.90;;;;;;12505466;28;19982;-35
2023/08/10 15:27:33;;;;;;;;;;;19.90;99.90;;;;;;12508199;28;19929;-36
2023/08/10 15:33:35;;;;;;;;;;;19.80;99.90;;;;;;12504549;28;20325;-35
2023/08/10 15:39:37;;;;;;;;;;;19.70;99.90;;;;;;12515389;28;20077;-35
2023/08/10 15:45:40;;;;;;;;;;;19.70;99.90;;;;;;12516798;28;20015;-36
2023/08/10 15:51:42;;;;;;;;;;;19.70;99.90;;;;;;12497454;28;19925;-35
2023/08/10 15:57:44;;;;;;;;;;;19.50;99.90;;;;;;12507785;28;19931;-35
2023/08/10 16:03:46;;;;;;;;;;;19.60;99.90;;;;;;12501962;28;19928;-35
2023/08/10 16:09:48;;;;;;;;;;;19.50;99.90;;;;;;12506694;28;20316;-36
2023/08/10 16:15:50;;;;;;;;;;;19.50;99.90;;;;;;12514115;28;19931;-35
2023/08/10 16:21:52;;;;;;;;;;;19.50;99.90;;;;;;12494906;28;19929;-35
2023/08/10 16:27:55;;;;;;;;;;;19.40;99.90;;;;;;12501082;28;20539;-37
2023/08/10 16:33:57;;;;;;;;;;;19.40;99.90;;;;;;12515795;28;20032;-35
2023/08/10 16:39:59;;;;;;;;;;;19.30;99.90;;;;;;12499393;28;20338;-35
2023/08/10 16:46:01;;;;;;;;;;;19.30;99.90;;;;;;12512303;28;20423;-34
2023/08/10 16:52:03;;;;;;;;;;;19.20;99.90;;;;;;12514767;28;20353;-35
2023/08/10 16:58:05;;;;;;;;;;;19.20;99.90;;;;;;12490444;28;19959;-34
2023/08/10 17:04:08;;;;;;;;;;;19.10;99.90;;;;;;12515002;28;20404;-35
2023/08/10 17:10:11;;;;;;;;;;;19.10;99.90;;;;;;12506772;28;19924;-35
2023/08/10 17:16:14;;;;;;;;;;;19.10;99.90;;;;;;12503392;28;19933;-35
2023/08/10 17:22:16;;;;;;;;;;;19.10;99.90;;;;;;12513717;28;19925;-35
2023/08/10 17:28:17;;;;;;;;;;;19.10;99.90;;;;;;12506778;28;19978;-35
2023/08/10 17:34:19;;;;;;;;;;;19.10;99.90;;;;;;12505008;28;20364;-35
2023/08/10 17:40:21;;;;;;;;;;;19.10;99.90;;;;;;12506066;28;19937;-35
2023/08/10 17:46:26;;;;;;;;;;;19.10;99.90;;;;;;12486331;28;19929;-35
2023/08/10 17:52:27;;;;;;;;;;;19.10;99.90;;;;;;12502936;28;20300;-35
2023/08/10 17:58:29;;;;;;;;;;;19.10;99.90;;;;;;12494620;28;20350;-35
2023/08/10 18:04:31;;;;;;;;;;;19.00;99.90;;;;;;12507111;28;20012;-35
2023/08/10 18:10:33;;;;;;;;;;;18.90;99.90;;;;;;12494567;28;20027;-35
2023/08/10 18:16:35;;;;;;;;;;;18.80;99.90;;;;;;12500623;28;20021;-35
2023/08/10 18:22:36;;;;;;;;;;;18.70;99.90;;;;;;12500907;28;19925;-35
2023/08/10 18:28:38;;;;;;;;;;;18.60;99.90;;;;;;12510536;28;19931;-35
2023/08/10 18:34:40;;;;;;;;;;;18.40;99.90;;;;;;12495404;28;20574;-34
2023/08/10 18:40:42;;;;;;;;;;;18.40;99.90;;;;;;12523094;28;19951;-35
2023/08/10 18:46:43;;;;;;;;;;;18.40;99.90;;;;;;12500201;28;20159;-34
2023/08/10 18:52:45;;;;;;;;;;;18.30;99.90;;;;;;12510576;28;20293;-35
2023/08/10 18:58:47;;;;;;;;;;;18.30;99.90;;;;;;12500052;28;19967;-35
2023/08/10 19:04:49;;;;;;;;;;;18.20;99.90;;;;;;12513578;28;19924;-34
2023/08/10 19:10:53;;;;;;;;;;;18.20;99.90;;;;;;12492263;28;19937;-34
2023/08/10 19:16:55;;;;;;;;;;;18.20;99.90;;;;;;12507294;28;19929;-35
2023/08/10 19:22:57;;;;;;;;;;;18.20;99.90;;;;;;12497480;28;19939;-35
2023/08/10 19:28:58;;;;;;;;;;;18.30;99.90;;;;;;12507606;28;19990;-34
2023/08/10 19:35:00;;;;;;;;;;;18.20;99.90;;;;;;12509813;28;20047;-35
2023/08/10 19:41:02;;;;;;;;;;;18.20;99.90;;;;;;12515579;28;20330;-35
2023/08/10 19:47:04;;;;;;;;;;;18.10;99.90;;;;;;12494650;28;20036;-35
2023/08/10 19:53:05;;;;;;;;;;;18.00;99.90;;;;;;12500341;28;20020;-35
2023/08/10 19:59:08;;;;;;;;;;;17.80;99.90;;;;;;12506758;28;19960;-34
2023/08/10 20:05:10;;;;;;;;;;;17.80;99.90;;;;;;12501202;28;20036;-35
2023/08/10 20:11:12;;;;;;;;;;;17.80;99.90;;;;;;12501502;28;20033;-34
2023/08/10 20:17:13;;;;;;;;;;;17.70;99.90;;;;;;12516544;28;19924;-35
2023/08/10 20:23:15;;;;;;;;;;;17.60;99.90;;;;;;12486963;28;19982;-36
2023/08/10 20:29:17;;;;;;;;;;;17.70;99.90;;;;;;12493689;28;20400;-35
2023/08/10 20:35:19;;;;;;;;;;;17.60;99.90;;;;;;12493303;28;19933;-35
2023/08/10 20:41:21;;;;;;;;;;;17.60;99.90;;;;;;12493459;28;20023;-35
2023/08/10 20:47:23;;;;;;;;;;;17.60;99.90;;;;;;12489612;28;20011;-36
2023/08/10 20:53:26;;;;;;;;;;;17.60;99.90;;;;;;12498715;28;19932;-35
2023/08/10 20:59:33;;;;;;;;;;;17.50;99.90;;;;;;12478846;28;19940;-34
2023/08/10 21:05:35;;;;;;;;;;;17.40;99.90;;;;;;12475905;28;20309;-36
2023/08/10 21:11:36;;;;;;;;;;;17.60;99.90;;;;;;12499598;28;20377;-35
2023/08/10 21:17:39;;;;;;;;;;;17.50;99.90;;;;;;12489396;28;20019;-35
2023/08/10 21:23:40;;;;;;;;;;;17.40;99.90;;;;;;12483397;28;19925;-36
2023/08/10 21:29:42;;;;;;;;;;;17.40;99.90;;;;;;12489050;28;19960;-36
2023/08/10 21:35:44;;;;;;;;;;;17.50;99.90;;;;;;12484877;28;19986;-35
2023/08/10 21:41:45;;;;;;;;;;;17.40;99.90;;;;;;12500388;28;19925;-35
2023/08/10 21:47:47;;;;;;;;;;;17.30;99.90;;;;;;12492130;28;21042;-35
2023/08/10 21:53:50;;;;;;;;;;;17.30;99.90;;;;;;12487606;28;19970;-35
2023/08/10 21:59:51;;;;;;;;;;;17.30;99.90;;;;;;12487821;28;19968;-35
2023/08/10 22:05:53;;;;;;;;;;;17.20;99.90;;;;;;12482657;28;20441;-35
2023/08/10 22:11:55;;;;;;;;;;;17.20;99.90;;;;;;12469988;28;19925;-35
2023/08/10 22:17:57;;;;;;;;;;;17.30;99.90;;;;;;12490098;28;20056;-35
2023/08/10 22:23:58;;;;;;;;;;;17.20;99.90;;;;;;12486693;28;19987;-34
2023/08/10 22:30:00;;;;;;;;;;;17.10;99.90;;;;;;12502851;28;20056;-34
2023/08/10 22:36:02;;;;;;;;;;;17.20;99.90;;;;;;12499056;28;19967;-34
2023/08/10 22:42:04;;;;;;;;;;;17.20;99.90;;;;;;12486743;28;19933;-35
2023/08/10 22:48:06;;;;;;;;;;;17.30;99.90;;;;;;12496329;28;19929;-35
2023/08/10 22:54:08;;;;;;;;;;;17.30;99.90;;;;;;12491674;28;19932;-35
2023/08/10 23:00:13;;;;;;;;;;;17.30;99.90;;;;;;12505687;28;20037;-35
2023/08/10 23:06:15;;;;;;;;;;;17.30;99.90;;;;;;12498711;28;19925;-35
2023/08/10 23:12:18;;;;;;;;;;;17.30;99.90;;;;;;12506936;28;20783;-35
2023/08/10 23:18:20;;;;;;;;;;;17.30;99.90;;;;;;12504442;28;19937;-35
2023/08/10 23:24:22;;;;;;;;;;;17.40;99.90;;;;;;12522304;28;19932;-35
2023/08/10 23:30:23;;;;;;;;;;;17.30;99.90;;;;;;12492771;28;20318;-35
2023/08/10 23:36:25;;;;;;;;;;;17.20;99.90;;;;;;12478426;28;20015;-37
2023/08/10 23:42:27;;;;;;;;;;;17.20;99.90;;;;;;12460815;28;19925;-34
2023/08/10 23:48:30;;;;;;;;;;;17.20;99.90;;;;;;12464593;28;19936;-34
2023/08/10 23:54:32;;;;;;;;;;;17.20;99.90;;;;;;12466816;28;19929;-34
